17:38
Airports
History
Links
Donate
Help keep this website running!
PayPal
Bitcoin
This page is community maintained. The information is intended for PC simulator navigation or reference.
Always use approved charts for navigation.
EDX3
Amoeneburg glider field
Amoeneburg glider field (EDX3)
Amöneburg, Hessen, Germany (35287)
4
Lat/Lng:50° 47' 22.75" N / 8° 54' 23.55" E
50.789654 / 8.906541
Elevation:705'ft / 215mMSL
ID / ICAO:EDX3
Runways:1
Longest:4-22
Grass 837m / 2,746ft
Nearby Weather17:20 GMT 2018-02-19
Nearby weather at ETHF, FRITZLAR located 27.9 nautical miles from EDX3
Altimeter: 30.06
Visibility: 6.2 statute miles
Wind: 1 knots (from 340°)
Temp: 0°c / 32°f
Humidity: %

METAR: ETHF 191720Z 34001KT 9999 BKN080 00/M03 Q1018 BLU BLU

(Powered by phpweather)
Nearby VORs <50NM
Nearby NDBs
Runway 4 / 22
Dimensions:836.9 x 35.1m 2746' x 115'ft
Surface:Grass
Runway 4 [A]Runway 22 [B]
Heading:050°TH 230°TH
Lat:
Lng:
50° 47' 14.22"N
8° 54' 6.91"E
50° 47' 31.29"N
8° 54' 40.19"E
User Notes and Comments
50° 47' 22.75" N / 8° 54' 23.55" E
Distance To
Airport ID:
Nearby Airports
(C) Marburg Schoenstadt 7.1 NM
EDFN NW 324°
4 Giessen Wieseckaue 15.0 NM
EDX2 SSW 211°
(U) ALLENDORF EDER 19.6 NM
EDFQ NNW 329°
(U) Giessen Luetzelinden 21.8 NM
EDFL SW 219°
4 Lauterbach 23.2 NM
EDFT ESE 108°
(C) Butzbach - Pfingstweide 27.5 NM
ED06 SSW 207°
(C) FRITZLAR 27.9 NM
ETHF ( WX ) NE 36°
VFR Chart
Flight Planning at SkyVector.com